sensor_id;sensor_type;location;lat;lon;timestamp;pressure;altitude;pressure_sealevel;temperature;humidity
55289;BME280;41154;45.394;5.734;2022-11-14T00:01:10;97107.75;;;6.02;100.00
55289;BME280;41154;45.394;5.734;2022-11-14T00:03:55;97094.41;;;6.27;100.00
55289;BME280;41154;45.394;5.734;2022-11-14T00:06:40;97102.69;;;6.37;100.00
55289;BME280;41154;45.394;5.734;2022-11-14T00:09:28;97099.31;;;6.48;100.00
55289;BME280;41154;45.394;5.734;2022-11-14T00:12:13;97090.72;;;6.28;100.00
55289;BME280;41154;45.394;5.734;2022-11-14T00:14:57;97096.75;;;6.17;100.00
55289;BME280;41154;45.394;5.734;2022-11-14T00:17:44;97089.28;;;6.07;100.00
55289;BME280;41154;45.394;5.734;2022-11-14T00:20:29;97089.34;;;5.93;100.00
55289;BME280;41154;45.394;5.734;2022-11-14T00:23:13;97088.41;;;5.81;100.00
55289;BME280;41154;45.394;5.734;2022-11-14T00:25:58;97085.97;;;5.80;100.00
55289;BME280;41154;45.394;5.734;2022-11-14T00:28:42;97075.75;;;5.51;100.00
55289;BME280;41154;45.394;5.734;2022-11-14T00:31:27;97094.53;;;5.88;100.00
55289;BME280;41154;45.394;5.734;2022-11-14T00:34:11;97085.38;;;5.78;100.00
55289;BME280;41154;45.394;5.734;2022-11-14T00:36:56;97088.47;;;5.74;100.00
55289;BME280;41154;45.394;5.734;2022-11-14T00:39:42;97086.25;;;6.03;100.00
55289;BME280;41154;45.394;5.734;2022-11-14T00:42:30;97078.63;;;6.07;100.00
55289;BME280;41154;45.394;5.734;2022-11-14T00:45:22;97090.34;;;6.24;100.00
55289;BME280;41154;45.394;5.734;2022-11-14T00:48:13;97074.66;;;6.16;100.00
55289;BME280;41154;45.394;5.734;2022-11-14T00:51:00;97075.09;;;6.32;100.00
55289;BME280;41154;45.394;5.734;2022-11-14T00:53:50;97075.78;;;6.27;100.00
55289;BME280;41154;45.394;5.734;2022-11-14T00:56:35;97064.91;;;6.28;100.00
55289;BME280;41154;45.394;5.734;2022-11-14T00:59:19;97057.84;;;6.53;100.00
55289;BME280;41154;45.394;5.734;2022-11-14T01:02:16;97062.91;;;6.42;100.00
55289;BME280;41154;45.394;5.734;2022-11-14T01:05:04;97058.06;;;6.33;100.00
55289;BME280;41154;45.394;5.734;2022-11-14T01:07:52;97055.50;;;6.26;100.00
55289;BME280;41154;45.394;5.734;2022-11-14T01:10:45;97066.75;;;6.28;100.00
55289;BME280;41154;45.394;5.734;2022-11-14T01:13:37;97059.03;;;6.20;100.00
55289;BME280;41154;45.394;5.734;2022-11-14T01:16:23;97059.59;;;6.47;100.00
55289;BME280;41154;45.394;5.734;2022-11-14T01:19:13;97054.09;;;6.23;100.00
55289;BME280;41154;45.394;5.734;2022-11-14T01:22:05;97054.16;;;5.91;100.00
55289;BME280;41154;45.394;5.734;2022-11-14T01:24:57;97055.78;;;5.92;100.00
55289;BME280;41154;45.394;5.734;2022-11-14T01:27:48;97053.13;;;5.92;100.00
55289;BME280;41154;45.394;5.734;2022-11-14T01:30:39;97050.09;;;6.14;100.00
55289;BME280;41154;45.394;5.734;2022-11-14T01:33:24;97049.78;;;6.04;100.00
55289;BME280;41154;45.394;5.734;2022-11-14T01:36:10;97047.53;;;6.01;100.00
55289;BME280;41154;45.394;5.734;2022-11-14T01:38:55;97043.19;;;6.06;100.00
55289;BME280;41154;45.394;5.734;2022-11-14T01:41:41;97041.44;;;6.19;100.00
55289;BME280;41154;45.394;5.734;2022-11-14T01:47:35;97052.91;;;6.19;100.00
55289;BME280;41154;45.394;5.734;2022-11-14T01:50:28;97036.56;;;6.16;100.00
55289;BME280;41154;45.394;5.734;2022-11-14T01:53:20;97035.59;;;6.47;100.00
55289;BME280;41154;45.394;5.734;2022-11-14T01:56:10;97033.59;;;6.42;100.00
55289;BME280;41154;45.394;5.734;2022-11-14T01:59:07;97033.38;;;6.44;100.00
55289;BME280;41154;45.394;5.734;2022-11-14T02:01:58;97018.31;;;6.50;100.00
55289;BME280;41154;45.394;5.734;2022-11-14T02:04:52;97023.97;;;6.41;100.00
55289;BME280;41154;45.394;5.734;2022-11-14T02:07:43;97031.66;;;6.50;100.00
55289;BME280;41154;45.394;5.734;2022-11-14T02:10:33;97015.53;;;6.44;100.00
55289;BME280;41154;45.394;5.734;2022-11-14T02:13:24;97026.25;;;6.56;100.00
55289;BME280;41154;45.394;5.734;2022-11-14T02:16:17;97021.75;;;6.57;100.00
55289;BME280;41154;45.394;5.734;2022-11-14T02:19:05;97024.41;;;6.57;100.00
55289;BME280;41154;45.394;5.734;2022-11-14T02:21:53;97019.22;;;6.62;100.00
55289;BME280;41154;45.394;5.734;2022-11-14T02:24:42;97021.03;;;6.80;100.00
55289;BME280;41154;45.394;5.734;2022-11-14T02:27:29;97023.13;;;6.78;100.00
55289;BME280;41154;45.394;5.734;2022-11-14T02:30:18;97015.81;;;6.73;100.00
55289;BME280;41154;45.394;5.734;2022-11-14T02:33:03;97016.84;;;6.72;100.00
55289;BME280;41154;45.394;5.734;2022-11-14T02:35:48;97012.19;;;6.98;100.00
55289;BME280;41154;45.394;5.734;2022-11-14T02:38:32;97014.16;;;7.02;100.00
55289;BME280;41154;45.394;5.734;2022-11-14T02:41:17;97016.69;;;7.28;100.00
55289;BME280;41154;45.394;5.734;2022-11-14T02:44:02;97014.75;;;7.59;100.00
55289;BME280;41154;45.394;5.734;2022-11-14T02:46:46;97005.59;;;7.54;100.00
55289;BME280;41154;45.394;5.734;2022-11-14T02:49:31;97010.00;;;7.72;100.00
55289;BME280;41154;45.394;5.734;2022-11-14T02:52:16;97011.78;;;7.90;100.00
55289;BME280;41154;45.394;5.734;2022-11-14T02:55:00;97013.53;;;7.97;100.00
55289;BME280;41154;45.394;5.734;2022-11-14T02:57:45;97010.50;;;8.05;100.00
55289;BME280;41154;45.394;5.734;2022-11-14T03:00:29;97006.19;;;8.16;100.00
55289;BME280;41154;45.394;5.734;2022-11-14T03:03:14;97000.84;;;8.16;100.00
55289;BME280;41154;45.394;5.734;2022-11-14T03:06:02;97004.56;;;8.03;100.00
55289;BME280;41154;45.394;5.734;2022-11-14T03:08:47;97013.28;;;7.86;100.00
55289;BME280;41154;45.394;5.734;2022-11-14T03:11:32;97002.00;;;8.08;100.00
55289;BME280;41154;45.394;5.734;2022-11-14T03:14:17;97010.38;;;7.88;100.00
55289;BME280;41154;45.394;5.734;2022-11-14T03:17:01;97010.03;;;7.84;100.00
55289;BME280;41154;45.394;5.734;2022-11-14T03:19:46;96998.72;;;8.30;100.00
55289;BME280;41154;45.394;5.734;2022-11-14T03:22:30;97008.63;;;8.17;100.00
55289;BME280;41154;45.394;5.734;2022-11-14T03:25:15;97005.25;;;8.22;100.00
55289;BME280;41154;45.394;5.734;2022-11-14T03:27:59;97016.63;;;8.17;100.00
55289;BME280;41154;45.394;5.734;2022-11-14T03:30:45;97010.03;;;8.20;100.00
55289;BME280;41154;45.394;5.734;2022-11-14T03:33:30;97008.84;;;8.04;100.00
55289;BME280;41154;45.394;5.734;2022-11-14T03:36:14;97011.06;;;7.95;100.00
55289;BME280;41154;45.394;5.734;2022-11-14T03:38:59;96996.19;;;8.11;100.00
55289;BME280;41154;45.394;5.734;2022-11-14T03:41:43;97000.50;;;8.12;100.00
55289;BME280;41154;45.394;5.734;2022-11-14T03:44:28;97006.88;;;7.99;100.00
55289;BME280;41154;45.394;5.734;2022-11-14T03:47:12;97009.09;;;8.02;100.00
55289;BME280;41154;45.394;5.734;2022-11-14T03:49:57;97001.31;;;8.13;100.00
55289;BME280;41154;45.394;5.734;2022-11-14T03:52:42;96997.25;;;7.86;100.00
55289;BME280;41154;45.394;5.734;2022-11-14T03:55:26;97000.03;;;7.91;100.00
55289;BME280;41154;45.394;5.734;2022-11-14T03:58:11;96995.28;;;7.82;100.00
55289;BME280;41154;45.394;5.734;2022-11-14T04:00:55;96998.19;;;7.80;100.00
55289;BME280;41154;45.394;5.734;2022-11-14T04:03:40;97001.66;;;7.92;100.00
55289;BME280;41154;45.394;5.734;2022-11-14T04:06:24;96996.75;;;8.37;100.00
55289;BME280;41154;45.394;5.734;2022-11-14T04:09:09;96997.56;;;8.37;100.00
55289;BME280;41154;45.394;5.734;2022-11-14T04:11:54;96985.47;;;8.35;100.00
55289;BME280;41154;45.394;5.734;2022-11-14T04:14:38;96983.72;;;8.40;100.00
55289;BME280;41154;45.394;5.734;2022-11-14T04:17:22;96994.31;;;8.35;100.00
55289;BME280;41154;45.394;5.734;2022-11-14T04:20:07;96984.66;;;8.22;100.00
55289;BME280;41154;45.394;5.734;2022-11-14T04:22:52;96989.44;;;8.20;100.00
55289;BME280;41154;45.394;5.734;2022-11-14T04:25:36;96987.75;;;8.43;100.00
55289;BME280;41154;45.394;5.734;2022-11-14T04:28:21;96992.59;;;8.29;100.00
55289;BME280;41154;45.394;5.734;2022-11-14T04:31:06;96992.22;;;8.25;100.00
55289;BME280;41154;45.394;5.734;2022-11-14T04:33:50;96993.16;;;8.31;100.00
55289;BME280;41154;45.394;5.734;2022-11-14T04:36:35;96991.28;;;8.43;100.00
55289;BME280;41154;45.394;5.734;2022-11-14T04:39:19;96994.09;;;8.13;100.00
55289;BME280;41154;45.394;5.734;2022-11-14T04:42:04;96991.31;;;8.08;100.00
55289;BME280;41154;45.394;5.734;2022-11-14T04:44:48;96991.69;;;8.00;100.00
55289;BME280;41154;45.394;5.734;2022-11-14T04:47:33;96983.31;;;7.84;100.00
55289;BME280;41154;45.394;5.734;2022-11-14T04:50:18;96981.47;;;7.73;100.00
55289;BME280;41154;45.394;5.734;2022-11-14T04:53:02;96976.94;;;8.09;100.00
55289;BME280;41154;45.394;5.734;2022-11-14T04:55:47;96978.19;;;8.06;100.00
55289;BME280;41154;45.394;5.734;2022-11-14T04:58:31;96990.41;;;7.79;100.00
55289;BME280;41154;45.394;5.734;2022-11-14T05:01:16;96986.34;;;7.76;100.00
55289;BME280;41154;45.394;5.734;2022-11-14T05:04:00;96988.78;;;7.66;100.00
55289;BME280;41154;45.394;5.734;2022-11-14T05:06:45;96992.25;;;7.66;100.00
55289;BME280;41154;45.394;5.734;2022-11-14T05:09:29;96988.78;;;7.66;100.00
55289;BME280;41154;45.394;5.734;2022-11-14T05:12:14;96986.34;;;7.64;100.00
55289;BME280;41154;45.394;5.734;2022-11-14T05:14:59;96995.66;;;7.85;100.00
55289;BME280;41154;45.394;5.734;2022-11-14T05:17:43;96990.66;;;7.89;100.00
55289;BME280;41154;45.394;5.734;2022-11-14T05:20:28;96992.28;;;7.78;100.00
55289;BME280;41154;45.394;5.734;2022-11-14T05:23:19;96990.06;;;7.99;100.00
55289;BME280;41154;45.394;5.734;2022-11-14T05:26:09;96986.00;;;7.84;100.00
55289;BME280;41154;45.394;5.734;2022-11-14T05:28:54;96981.59;;;7.78;100.00
55289;BME280;41154;45.394;5.734;2022-11-14T05:31:38;96989.59;;;7.78;100.00
55289;BME280;41154;45.394;5.734;2022-11-14T05:34:23;96986.44;;;7.69;100.00
55289;BME280;41154;45.394;5.734;2022-11-14T05:37:08;96981.00;;;7.64;100.00
55289;BME280;41154;45.394;5.734;2022-11-14T05:39:52;96978.44;;;7.69;100.00
55289;BME280;41154;45.394;5.734;2022-11-14T05:42:37;96988.06;;;7.59;100.00
55289;BME280;41154;45.394;5.734;2022-11-14T05:45:21;96981.22;;;7.63;100.00
55289;BME280;41154;45.394;5.734;2022-11-14T05:48:05;96986.09;;;7.89;100.00
55289;BME280;41154;45.394;5.734;2022-11-14T05:50:58;96977.06;;;7.67;100.00
55289;BME280;41154;45.394;5.734;2022-11-14T05:53:43;96984.00;;;7.68;100.00
55289;BME280;41154;45.394;5.734;2022-11-14T05:56:27;96990.19;;;7.68;100.00
55289;BME280;41154;45.394;5.734;2022-11-14T05:59:12;96984.81;;;7.56;100.00
55289;BME280;41154;45.394;5.734;2022-11-14T06:01:56;96988.66;;;7.49;100.00
55289;BME280;41154;45.394;5.734;2022-11-14T06:04:41;96982.97;;;7.69;100.00
55289;BME280;41154;45.394;5.734;2022-11-14T06:07:25;96988.22;;;7.64;100.00
55289;BME280;41154;45.394;5.734;2022-11-14T06:10:10;96988.22;;;7.64;100.00
55289;BME280;41154;45.394;5.734;2022-11-14T06:13:14;96986.69;;;7.68;100.00
55289;BME280;41154;45.394;5.734;2022-11-14T06:16:10;96987.25;;;7.82;100.00
55289;BME280;41154;45.394;5.734;2022-11-14T06:18:59;96979.72;;;7.79;100.00
55289;BME280;41154;45.394;5.734;2022-11-14T06:21:43;96995.53;;;7.92;100.00
55289;BME280;41154;45.394;5.734;2022-11-14T06:24:28;96994.22;;;7.71;100.00
55289;BME280;41154;45.394;5.734;2022-11-14T06:27:13;96999.69;;;7.88;100.00
55289;BME280;41154;45.394;5.734;2022-11-14T06:29:57;96993.75;;;7.98;100.00
55289;BME280;41154;45.394;5.734;2022-11-14T06:32:42;96993.28;;;8.01;100.00
55289;BME280;41154;45.394;5.734;2022-11-14T06:35:26;97002.38;;;8.00;100.00
55289;BME280;41154;45.394;5.734;2022-11-14T06:38:11;96998.50;;;8.19;100.00
55289;BME280;41154;45.394;5.734;2022-11-14T06:41:09;97001.53;;;7.99;100.00
55289;BME280;41154;45.394;5.734;2022-11-14T06:43:54;97004.81;;;8.01;100.00
55289;BME280;41154;45.394;5.734;2022-11-14T06:46:38;97001.88;;;8.26;100.00
55289;BME280;41154;45.394;5.734;2022-11-14T06:49:23;97003.28;;;7.94;100.00
55289;BME280;41154;45.394;5.734;2022-11-14T06:52:11;97011.88;;;8.19;100.00
55289;BME280;41154;45.394;5.734;2022-11-14T06:54:55;97012.00;;;7.89;100.00
55289;BME280;41154;45.394;5.734;2022-11-14T06:57:40;97020.84;;;7.78;100.00
55289;BME280;41154;45.394;5.734;2022-11-14T07:00:25;97022.22;;;7.80;100.00
55289;BME280;41154;45.394;5.734;2022-11-14T07:03:09;97028.94;;;8.06;100.00
55289;BME280;41154;45.394;5.734;2022-11-14T07:05:57;97031.03;;;7.92;100.00
55289;BME280;41154;45.394;5.734;2022-11-14T07:08:41;97040.56;;;8.12;100.00
55289;BME280;41154;45.394;5.734;2022-11-14T07:11:27;97035.69;;;7.85;100.00
55289;BME280;41154;45.394;5.734;2022-11-14T07:14:12;97043.94;;;8.19;100.00
55289;BME280;41154;45.394;5.734;2022-11-14T07:16:57;97038.25;;;8.16;100.00
55289;BME280;41154;45.394;5.734;2022-11-14T07:19:41;97043.22;;;8.24;100.00
55289;BME280;41154;45.394;5.734;2022-11-14T07:22:26;97042.66;;;8.22;100.00
55289;BME280;41154;45.394;5.734;2022-11-14T07:25:10;97058.09;;;8.08;100.00
55289;BME280;41154;45.394;5.734;2022-11-14T07:27:56;97058.22;;;8.49;100.00
55289;BME280;41154;45.394;5.734;2022-11-14T07:30:41;97058.22;;;8.60;100.00
55289;BME280;41154;45.394;5.734;2022-11-14T07:33:25;97053.88;;;8.71;100.00
55289;BME280;41154;45.394;5.734;2022-11-14T07:36:10;97055.63;;;8.66;100.00
55289;BME280;41154;45.394;5.734;2022-11-14T07:38:56;97062.69;;;8.84;100.00
55289;BME280;41154;45.394;5.734;2022-11-14T07:41:41;97060.97;;;9.06;100.00
55289;BME280;41154;45.394;5.734;2022-11-14T07:44:25;97065.88;;;8.97;100.00
55289;BME280;41154;45.394;5.734;2022-11-14T07:47:09;97070.56;;;8.90;100.00
55289;BME280;41154;45.394;5.734;2022-11-14T07:49:54;97061.75;;;8.90;100.00
55289;BME280;41154;45.394;5.734;2022-11-14T07:52:39;97070.34;;;8.80;100.00
55289;BME280;41154;45.394;5.734;2022-11-14T07:55:23;97065.47;;;9.17;100.00
55289;BME280;41154;45.394;5.734;2022-11-14T07:58:08;97075.00;;;9.42;100.00
55289;BME280;41154;45.394;5.734;2022-11-14T08:00:52;97070.75;;;9.00;100.00
55289;BME280;41154;45.394;5.734;2022-11-14T08:03:37;97076.25;;;8.94;100.00
55289;BME280;41154;45.394;5.734;2022-11-14T08:06:21;97077.91;;;8.83;100.00
55289;BME280;41154;45.394;5.734;2022-11-14T08:09:06;97068.78;;;8.96;100.00
55289;BME280;41154;45.394;5.734;2022-11-14T08:11:50;97075.69;;;9.21;100.00
55289;BME280;41154;45.394;5.734;2022-11-14T08:14:35;97076.41;;;9.45;100.00
55289;BME280;41154;45.394;5.734;2022-11-14T08:17:20;97074.59;;;9.33;100.00
55289;BME280;41154;45.394;5.734;2022-11-14T08:20:06;97070.72;;;9.58;100.00
55289;BME280;41154;45.394;5.734;2022-11-14T08:23:02;97081.22;;;9.77;100.00
55289;BME280;41154;45.394;5.734;2022-11-14T08:25:46;97079.75;;;9.86;100.00
55289;BME280;41154;45.394;5.734;2022-11-14T08:28:30;97086.75;;;9.87;100.00
55289;BME280;41154;45.394;5.734;2022-11-14T08:31:15;97085.59;;;9.83;100.00
55289;BME280;41154;45.394;5.734;2022-11-14T08:33:59;97093.59;;;9.95;100.00
55289;BME280;41154;45.394;5.734;2022-11-14T08:36:44;97098.22;;;10.33;100.00
55289;BME280;41154;45.394;5.734;2022-11-14T08:39:28;97097.78;;;10.58;100.00
55289;BME280;41154;45.394;5.734;2022-11-14T08:42:13;97101.06;;;11.05;100.00
55289;BME280;41154;45.394;5.734;2022-11-14T08:44:57;97103.59;;;10.94;100.00
55289;BME280;41154;45.394;5.734;2022-11-14T08:47:42;97107.66;;;10.58;100.00
55289;BME280;41154;45.394;5.734;2022-11-14T08:50:27;97113.53;;;10.94;100.00
55289;BME280;41154;45.394;5.734;2022-11-14T08:53:11;97108.47;;;11.74;100.00
55289;BME280;41154;45.394;5.734;2022-11-14T08:55:55;97122.53;;;12.14;100.00
55289;BME280;41154;45.394;5.734;2022-11-14T08:58:40;97116.72;;;12.22;100.00
55289;BME280;41154;45.394;5.734;2022-11-14T09:01:24;97112.84;;;12.08;100.00
55289;BME280;41154;45.394;5.734;2022-11-14T09:04:09;97115.38;;;12.25;100.00
55289;BME280;41154;45.394;5.734;2022-11-14T09:06:53;97124.19;;;12.15;100.00
55289;BME280;41154;45.394;5.734;2022-11-14T09:09:38;97125.97;;;12.41;100.00
55289;BME280;41154;45.394;5.734;2022-11-14T09:12:22;97130.56;;;12.09;100.00
55289;BME280;41154;45.394;5.734;2022-11-14T09:15:07;97136.88;;;12.25;100.00
55289;BME280;41154;45.394;5.734;2022-11-14T09:17:53;97141.75;;;12.28;100.00
55289;BME280;41154;45.394;5.734;2022-11-14T09:20:37;97143.63;;;11.95;100.00
55289;BME280;41154;45.394;5.734;2022-11-14T09:23:22;97138.28;;;11.73;100.00
55289;BME280;41154;45.394;5.734;2022-11-14T09:26:08;97143.28;;;12.18;100.00
55289;BME280;41154;45.394;5.734;2022-11-14T09:28:53;97140.97;;;11.45;100.00
55289;BME280;41154;45.394;5.734;2022-11-14T09:31:37;97139.97;;;11.51;100.00
55289;BME280;41154;45.394;5.734;2022-11-14T09:34:22;97142.69;;;11.57;100.00
55289;BME280;41154;45.394;5.734;2022-11-14T09:37:06;97150.00;;;11.88;100.00
55289;BME280;41154;45.394;5.734;2022-11-14T09:39:51;97144.72;;;11.94;100.00
55289;BME280;41154;45.394;5.734;2022-11-14T09:45:33;97144.47;;;11.73;100.00
55289;BME280;41154;45.394;5.734;2022-11-14T09:48:22;97161.00;;;12.47;100.00
55289;BME280;41154;45.394;5.734;2022-11-14T09:51:14;97151.41;;;12.61;100.00
55289;BME280;41154;45.394;5.734;2022-11-14T09:54:22;97148.47;;;12.25;100.00
55289;BME280;41154;45.394;5.734;2022-11-14T09:57:14;97161.09;;;12.25;100.00
55289;BME280;41154;45.394;5.734;2022-11-14T09:59:59;97159.41;;;12.93;100.00
55289;BME280;41154;45.394;5.734;2022-11-14T10:03:14;97151.72;;;13.23;100.00
55289;BME280;41154;45.394;5.734;2022-11-14T10:12:16;97142.63;;;12.38;100.00
55289;BME280;41154;45.394;5.734;2022-11-14T10:15:14;97138.88;;;12.39;100.00
55289;BME280;41154;45.394;5.734;2022-11-14T10:25:01;97134.63;;;12.44;100.00
55289;BME280;41154;45.394;5.734;2022-11-14T10:38:03;97123.31;;;12.94;100.00
55289;BME280;41154;45.394;5.734;2022-11-14T10:40:45;97121.81;;;13.19;100.00
55289;BME280;41154;45.394;5.734;2022-11-14T10:43:41;97111.81;;;12.56;100.00
55289;BME280;41154;45.394;5.734;2022-11-14T10:46:31;97117.59;;;12.75;100.00
55289;BME280;41154;45.394;5.734;2022-11-14T10:49:20;97117.19;;;13.04;100.00
55289;BME280;41154;45.394;5.734;2022-11-14T10:52:11;97106.53;;;12.72;100.00
55289;BME280;41154;45.394;5.734;2022-11-14T10:55:07;97108.13;;;12.68;100.00
55289;BME280;41154;45.394;5.734;2022-11-14T10:57:56;97100.72;;;12.48;100.00
55289;BME280;41154;45.394;5.734;2022-11-14T11:00:41;97103.53;;;12.20;100.00
55289;BME280;41154;45.394;5.734;2022-11-14T11:03:44;97106.44;;;12.56;100.00
55289;BME280;41154;45.394;5.734;2022-11-14T11:06:29;97105.22;;;12.32;100.00
55289;BME280;41154;45.394;5.734;2022-11-14T11:12:24;97102.34;;;12.44;100.00
55289;BME280;41154;45.394;5.734;2022-11-14T11:15:28;97103.72;;;12.51;100.00
55289;BME280;41154;45.394;5.734;2022-11-14T11:18:24;97100.56;;;12.22;100.00
55289;BME280;41154;45.394;5.734;2022-11-14T11:21:12;97101.41;;;12.28;100.00
55289;BME280;41154;45.394;5.734;2022-11-14T11:23:58;97106.97;;;12.16;100.00
55289;BME280;41154;45.394;5.734;2022-11-14T11:26:42;97098.16;;;12.26;100.00
55289;BME280;41154;45.394;5.734;2022-11-14T11:29:27;97101.22;;;12.39;100.00
55289;BME280;41154;45.394;5.734;2022-11-14T11:32:23;97101.94;;;12.72;100.00
55289;BME280;41154;45.394;5.734;2022-11-14T11:35:11;97100.72;;;12.90;100.00
55289;BME280;41154;45.394;5.734;2022-11-14T11:37:57;97101.03;;;12.51;100.00
55289;BME280;41154;45.394;5.734;2022-11-14T11:41:04;97090.06;;;12.63;100.00
55289;BME280;41154;45.394;5.734;2022-11-14T11:44:02;97095.41;;;13.16;100.00
55289;BME280;41154;45.394;5.734;2022-11-14T11:46:56;97093.53;;;12.58;100.00
55289;BME280;41154;45.394;5.734;2022-11-14T11:49:49;97083.28;;;12.50;100.00
55289;BME280;41154;45.394;5.734;2022-11-14T11:52:45;97076.47;;;12.90;100.00
55289;BME280;41154;45.394;5.734;2022-11-14T11:55:33;97075.56;;;12.74;100.00
55289;BME280;41154;45.394;5.734;2022-11-14T11:58:37;97072.63;;;12.76;100.00
55289;BME280;41154;45.394;5.734;2022-11-14T12:01:24;97055.22;;;12.89;100.00
55289;BME280;41154;45.394;5.734;2022-11-14T12:04:08;97055.00;;;13.16;100.00
55289;BME280;41154;45.394;5.734;2022-11-14T12:06:59;97047.88;;;12.79;100.00
55289;BME280;41154;45.394;5.734;2022-11-14T12:09:48;97041.28;;;13.07;100.00
55289;BME280;41154;45.394;5.734;2022-11-14T12:15:43;97034.63;;;13.41;100.00
55289;BME280;41154;45.394;5.734;2022-11-14T12:22:17;97032.22;;;13.55;100.00
55289;BME280;41154;45.394;5.734;2022-11-14T12:25:35;97035.13;;;13.33;100.00
55289;BME280;41154;45.394;5.734;2022-11-14T12:31:33;97015.09;;;12.92;100.00
55289;BME280;41154;45.394;5.734;2022-11-14T12:34:33;97034.56;;;13.30;100.00
55289;BME280;41154;45.394;5.734;2022-11-14T12:37:30;97029.25;;;13.41;100.00
55289;BME280;41154;45.394;5.734;2022-11-14T12:40:33;97014.59;;;13.16;100.00
55289;BME280;41154;45.394;5.734;2022-11-14T12:43:39;97012.72;;;13.11;100.00
55289;BME280;41154;45.394;5.734;2022-11-14T12:46:25;97009.84;;;13.49;100.00
55289;BME280;41154;45.394;5.734;2022-11-14T12:52:44;97013.63;;;13.84;100.00
55289;BME280;41154;45.394;5.734;2022-11-14T13:07:37;96984.50;;;13.40;100.00
55289;BME280;41154;45.394;5.734;2022-11-14T13:10:31;96968.34;;;13.50;100.00
55289;BME280;41154;45.394;5.734;2022-11-14T13:13:22;96981.00;;;13.91;100.00
55289;BME280;41154;45.394;5.734;2022-11-14T13:16:29;96973.75;;;13.65;100.00
55289;BME280;41154;45.394;5.734;2022-11-14T13:19:33;96972.13;;;13.59;100.00
55289;BME280;41154;45.394;5.734;2022-11-14T13:22:42;96967.28;;;13.56;100.00
55289;BME280;41154;45.394;5.734;2022-11-14T13:25:26;96963.47;;;13.88;100.00
55289;BME280;41154;45.394;5.734;2022-11-14T13:31:24;96963.69;;;14.12;100.00
55289;BME280;41154;45.394;5.734;2022-11-14T13:46:27;96938.97;;;13.79;100.00
55289;BME280;41154;45.394;5.734;2022-11-14T13:49:41;96940.88;;;13.48;100.00
55289;BME280;41154;45.394;5.734;2022-11-14T13:52:33;96949.44;;;13.96;100.00
55289;BME280;41154;45.394;5.734;2022-11-14T13:55:20;96945.94;;;13.91;96.40
55289;BME280;41154;45.394;5.734;2022-11-14T14:13:12;96930.88;;;13.79;91.79
55289;BME280;41154;45.394;5.734;2022-11-14T14:16:06;96928.47;;;13.47;96.02
55289;BME280;41154;45.394;5.734;2022-11-14T14:19:12;96931.66;;;13.80;93.65
55289;BME280;41154;45.394;5.734;2022-11-14T14:22:46;96921.44;;;13.77;92.83
55289;BME280;41154;45.394;5.734;2022-11-14T14:25:39;96918.50;;;13.68;90.47
55289;BME280;41154;45.394;5.734;2022-11-14T14:31:38;96920.88;;;13.80;96.69
55289;BME280;41154;45.394;5.734;2022-11-14T14:34:29;96916.06;;;13.61;96.19
55289;BME280;41154;45.394;5.734;2022-11-14T14:37:25;96925.50;;;13.64;93.31
55289;BME280;41154;45.394;5.734;2022-11-14T14:40:25;96935.47;;;13.69;95.71
55289;BME280;41154;45.394;5.734;2022-11-14T14:43:27;96914.97;;;13.68;95.07
55289;BME280;41154;45.394;5.734;2022-11-14T14:46:13;96915.50;;;13.70;91.99
55289;BME280;41154;45.394;5.734;2022-11-14T14:49:00;96918.19;;;13.70;88.73
55289;BME280;41154;45.394;5.734;2022-11-14T14:51:46;96918.97;;;13.91;88.16
55289;BME280;41154;45.394;5.734;2022-11-14T14:54:30;96922.50;;;13.76;90.39
55289;BME280;41154;45.394;5.734;2022-11-14T14:57:18;96915.53;;;13.54;91.54
55289;BME280;41154;45.394;5.734;2022-11-14T15:00:06;96911.78;;;13.35;91.57
55289;BME280;41154;45.394;5.734;2022-11-14T15:02:54;96906.34;;;13.24;92.51
55289;BME280;41154;45.394;5.734;2022-11-14T15:05:39;96907.69;;;13.32;96.04
55289;BME280;41154;45.394;5.734;2022-11-14T15:08:24;96917.91;;;13.20;96.12
55289;BME280;41154;45.394;5.734;2022-11-14T15:11:09;96898.53;;;12.97;96.83
55289;BME280;41154;45.394;5.734;2022-11-14T15:13:56;96898.78;;;12.95;96.38
55289;BME280;41154;45.394;5.734;2022-11-14T15:16:43;96908.75;;;13.05;98.12
55289;BME280;41154;45.394;5.734;2022-11-14T15:19:36;96903.13;;;13.12;98.26
55289;BME280;41154;45.394;5.734;2022-11-14T15:22:24;96892.34;;;12.97;99.03
55289;BME280;41154;45.394;5.734;2022-11-14T15:27:54;96900.41;;;12.97;97.19
55289;BME280;41154;45.394;5.734;2022-11-14T15:31:03;96893.38;;;12.80;97.68
55289;BME280;41154;45.394;5.734;2022-11-14T15:40:19;96890.16;;;12.83;97.12
55289;BME280;41154;45.394;5.734;2022-11-14T15:49:24;96874.03;;;13.19;91.65
55289;BME280;41154;45.394;5.734;2022-11-14T15:52:19;96874.81;;;13.30;84.98
55289;BME280;41154;45.394;5.734;2022-11-14T15:55:16;96870.50;;;12.77;100.00
55289;BME280;41154;45.394;5.734;2022-11-14T15:58:01;96880.69;;;12.55;100.00
55289;BME280;41154;45.394;5.734;2022-11-14T16:00:51;96872.38;;;12.72;99.07
55289;BME280;41154;45.394;5.734;2022-11-14T16:03:37;96864.03;;;12.63;97.70
55289;BME280;41154;45.394;5.734;2022-11-14T16:06:21;96876.16;;;12.66;98.58
55289;BME280;41154;45.394;5.734;2022-11-14T16:09:19;96883.91;;;12.52;99.40
55289;BME280;41154;45.394;5.734;2022-11-14T16:12:04;96884.69;;;12.42;100.00
55289;BME280;41154;45.394;5.734;2022-11-14T16:14:49;96891.09;;;12.26;100.00
55289;BME280;41154;45.394;5.734;2022-11-14T16:17:38;96887.88;;;12.29;100.00
55289;BME280;41154;45.394;5.734;2022-11-14T16:20:25;96901.38;;;12.39;100.00
55289;BME280;41154;45.394;5.734;2022-11-14T16:23:13;96905.56;;;12.14;100.00
55289;BME280;41154;45.394;5.734;2022-11-14T16:25:57;96912.03;;;12.18;100.00
55289;BME280;41154;45.394;5.734;2022-11-14T16:28:42;96908.28;;;12.19;99.03
55289;BME280;41154;45.394;5.734;2022-11-14T16:31:26;96916.31;;;12.14;100.00
55289;BME280;41154;45.394;5.734;2022-11-14T16:34:18;96923.81;;;12.12;100.00